createdAt,value
2023-10-09T00:02:15.262Z,99977.38
2023-10-09T00:04:44.174Z,99975.81
2023-10-09T00:07:12.680Z,99978.16
2023-10-09T00:09:49.545Z,99974.75
2023-10-09T00:12:25.336Z,99965.34
2023-10-09T00:14:56.560Z,99955.16
2023-10-09T00:17:24.757Z,99965.88
2023-10-09T00:19:52.812Z,99965.34
2023-10-09T00:22:26.352Z,99958.28
2023-10-09T00:25:13.011Z,99937.13
2023-10-09T00:27:44.350Z,99924.84
2023-10-09T00:30:16.634Z,99920.91
2023-10-09T00:32:51.856Z,99920.41
2023-10-09T00:35:37.814Z,99913.34
2023-10-09T00:38:16.682Z,99899.22
2023-10-09T00:40:57.396Z,99868.09
2023-10-09T00:43:30.936Z,99860.28
2023-10-09T00:46:18.816Z,99846.41
2023-10-09T00:48:49.095Z,99829.94
2023-10-09T00:51:17.869Z,99829.94
2023-10-09T00:53:52.896Z,99823.41
2023-10-09T00:56:29.828Z,99829.69
2023-10-09T00:59:07.755Z,99838.84
2023-10-09T01:01:40.164Z,99854.00
2023-10-09T01:04:33.277Z,99869.44
2023-10-09T01:07:26.331Z,99868.63
2023-10-09T01:09:55.629Z,99858.72
2023-10-09T01:12:22.597Z,99860.03
2023-10-09T01:14:57.020Z,99857.41
2023-10-09T01:17:36.953Z,99861.06
2023-10-09T01:20:06.109Z,99854.00
2023-10-09T01:22:32.831Z,99849.56
2023-10-09T01:24:59.529Z,99849.31
2023-10-09T01:27:33.718Z,99842.78
2023-10-09T01:30:01.575Z,99830.22
2023-10-09T01:32:28.467Z,99812.44
2023-10-09T01:34:55.432Z,99819.50
2023-10-09T01:37:31.867Z,99811.63
2023-10-09T01:40:01.412Z,99805.34
2023-10-09T01:42:30.926Z,99807.72
2023-10-09T01:45:11.711Z,99803.81
2023-10-09T01:47:39.179Z,99809.31
2023-10-09T01:50:12.402Z,99810.38
2023-10-09T01:52:39.865Z,99801.19
2023-10-09T01:55:24.629Z,99799.09
2023-10-09T01:57:52.061Z,99780.31
2023-10-09T02:00:24.532Z,99774.84
2023-10-09T02:02:51.490Z,99773.00
2023-10-09T02:05:18.282Z,99755.50
2023-10-09T02:07:45.612Z,99746.63
2023-10-09T02:10:32.750Z,99748.47
2023-10-09T02:13:08.720Z,99727.56
2023-10-09T02:15:47.143Z,99715.25
2023-10-09T02:18:24.885Z,99710.31
2023-10-09T02:21:00.638Z,99734.63
2023-10-09T02:23:51.552Z,99729.66
2023-10-09T02:26:27.284Z,99709.28
2023-10-09T02:29:05.366Z,99695.44
2023-10-09T02:31:41.735Z,99682.38
2023-10-09T02:34:12.481Z,99674.53
2023-10-09T02:36:50.168Z,99669.06
2023-10-09T02:39:40.693Z,99669.59
2023-10-09T02:42:10.197Z,99664.09
2023-10-09T02:44:41.603Z,99669.56
2023-10-09T02:47:19.219Z,99663.31
2023-10-09T02:49:49.246Z,99656.00
2023-10-09T02:52:19.827Z,99640.59
2023-10-09T02:54:51.842Z,99631.44
2023-10-09T02:57:25.124Z,99630.91
2023-10-09T02:59:55.035Z,99614.44
2023-10-09T03:02:21.777Z,99604.50
2023-10-09T03:04:48.505Z,99590.38
2023-10-09T03:07:15.907Z,99589.34
2023-10-09T03:09:42.593Z,99604.75
2023-10-09T03:12:14.323Z,99588.28
2023-10-09T03:14:42.672Z,99584.84
2023-10-09T03:17:13.279Z,99572.53
2023-10-09T03:19:40.942Z,99562.59
2023-10-09T03:22:12.132Z,99545.81
2023-10-09T03:24:45.025Z,99537.47
2023-10-09T03:27:15.069Z,99524.13
2023-10-09T03:29:49.968Z,99529.09
2023-10-09T03:32:17.072Z,99519.94
2023-10-09T03:34:44.843Z,99522.03
2023-10-09T03:37:22.258Z,99517.03
2023-10-09T03:39:49.773Z,99520.19
2023-10-09T03:42:23.781Z,99533.78
2023-10-09T03:44:54.598Z,99537.72
2023-10-09T03:47:25.651Z,99541.34
2023-10-09T03:49:55.004Z,99539.75
2023-10-09T03:52:26.710Z,99545.47
2023-10-09T03:54:53.916Z,99548.13
2023-10-09T03:57:21.099Z,99531.13
2023-10-09T03:59:48.137Z,99546.50
2023-10-09T04:02:17.565Z,99533.19
2023-10-09T04:04:48.375Z,99535.25
2023-10-09T04:07:17.852Z,99529.25
2023-10-09T04:09:55.228Z,99535.03
2023-10-09T04:12:22.522Z,99527.97
2023-10-09T04:15:07.935Z,99521.66
2023-10-09T04:17:35.454Z,99534.44
2023-10-09T04:20:19.351Z,99539.47
2023-10-09T04:22:52.692Z,99534.28
2023-10-09T04:25:30.486Z,99539.44
2023-10-09T04:28:11.024Z,99547.50
2023-10-09T04:30:41.851Z,99536.78
2023-10-09T04:33:27.202Z,99529.22
2023-10-09T04:36:13.890Z,99538.88
2023-10-09T04:38:54.029Z,99544.69
2023-10-09T04:41:28.768Z,99532.13
2023-10-09T04:44:05.396Z,99522.44
2023-10-09T04:46:45.006Z,99508.84
2023-10-09T04:49:28.725Z,99500.72
2023-10-09T04:52:10.523Z,99504.13
2023-10-09T04:55:02.992Z,99496.09
2023-10-09T04:57:30.391Z,99489.06
2023-10-09T04:59:59.883Z,99492.50
2023-10-09T05:02:37.258Z,99488.34
2023-10-09T05:05:24.654Z,99464.53
2023-10-09T05:07:55.959Z,99467.72
2023-10-09T05:10:26.405Z,99459.13
2023-10-09T05:12:59.100Z,99459.94
2023-10-09T05:15:30.939Z,99447.72
2023-10-09T05:17:57.881Z,99447.66
2023-10-09T05:20:27.855Z,99448.69
2023-10-09T05:23:20.923Z,99448.44
2023-10-09T05:26:16.174Z,99443.22
2023-10-09T05:28:53.830Z,99434.78
2023-10-09T05:31:39.131Z,99414.91
2023-10-09T05:34:07.937Z,99421.72
2023-10-09T05:36:36.503Z,99428.06
2023-10-09T05:39:22.255Z,99413.66
2023-10-09T05:42:09.426Z,99430.66
2023-10-09T05:44:54.515Z,99442.41
2023-10-09T05:47:30.339Z,99452.13
2023-10-09T05:50:22.792Z,99435.66
2023-10-09T05:52:53.025Z,99443.19
2023-10-09T05:55:25.178Z,99448.66
2023-10-09T05:57:56.405Z,99449.44
2023-10-09T06:00:42.710Z,99451.72
2023-10-09T06:03:21.730Z,99446.47
2023-10-09T06:06:02.077Z,99441.00
2023-10-09T06:08:43.072Z,99451.19
2023-10-09T06:11:33.128Z,99443.84
2023-10-09T06:14:10.505Z,99436.53
2023-10-09T06:16:41.029Z,99435.16
2023-10-09T06:19:13.838Z,99444.63
2023-10-09T06:22:01.039Z,99428.75
2023-10-09T06:24:34.751Z,99444.16
2023-10-09T06:27:01.585Z,99433.97
2023-10-09T06:29:37.931Z,99434.53
2023-10-09T06:32:17.983Z,99429.97
2023-10-09T06:34:52.963Z,99433.81
2023-10-09T06:37:26.389Z,99431.72
2023-10-09T06:39:57.010Z,99438.25
2023-10-09T06:42:56.251Z,99437.47
2023-10-09T06:45:29.508Z,99436.69
2023-10-09T06:48:21.108Z,99423.34
2023-10-09T06:50:56.841Z,99441.06
2023-10-09T06:53:29.283Z,99438.19
2023-10-09T06:56:06.817Z,99438.75
2023-10-09T06:58:42.942Z,99435.63
2023-10-09T07:01:28.573Z,99436.66
2023-10-09T07:04:11.694Z,99434.03
2023-10-09T07:06:38.918Z,99447.09
2023-10-09T07:09:05.806Z,99465.41
2023-10-09T07:11:43.704Z,99470.91
2023-10-09T07:14:33.496Z,99478.69
2023-10-09T07:17:05.457Z,99472.91
2023-10-09T07:19:35.556Z,99473.38
2023-10-09T07:22:05.811Z,99487.50
2023-10-09T07:24:44.873Z,99488.06
2023-10-09T07:27:15.375Z,99473.88
2023-10-09T07:29:51.706Z,99471.50
2023-10-09T07:32:22.303Z,99465.72
2023-10-09T07:34:55.714Z,99479.25
2023-10-09T07:37:31.689Z,99484.97
2023-10-09T07:39:58.733Z,99484.16
2023-10-09T07:42:38.398Z,99485.34
2023-10-09T07:45:20.551Z,99480.78
2023-10-09T07:48:07.041Z,99496.19
2023-10-09T07:51:04.235Z,99497.19
2023-10-09T07:53:44.268Z,99489.00
2023-10-09T07:56:14.944Z,99489.75
2023-10-09T07:58:47.646Z,99489.19
2023-10-09T08:01:23.662Z,99491.25
2023-10-09T08:04:03.737Z,99495.34
2023-10-09T08:06:39.351Z,99503.66
2023-10-09T08:09:20.583Z,99509.66
2023-10-09T08:12:09.196Z,99507.31
2023-10-09T08:14:35.914Z,99511.13
2023-10-09T08:17:20.581Z,99501.66
2023-10-09T08:19:55.299Z,99500.31
2023-10-09T08:22:31.587Z,99499.97
2023-10-09T08:24:58.638Z,99502.03
2023-10-09T08:27:32.623Z,99507.75
2023-10-09T08:30:19.345Z,99511.88
2023-10-09T08:35:47.642Z,99513.19
2023-10-09T08:38:15.825Z,99513.13
2023-10-09T08:40:44.275Z,99506.25
2023-10-09T08:43:15.792Z,99505.66
2023-10-09T08:45:47.835Z,99507.50
2023-10-09T08:48:18.827Z,99526.06
2023-10-09T08:50:47.960Z,99519.19
2023-10-09T08:53:17.395Z,99523.88
2023-10-09T08:55:45.090Z,99523.09
2023-10-09T08:58:18.423Z,99526.50
2023-10-09T09:00:47.214Z,99520.97
2023-10-09T09:03:18.621Z,99517.84
2023-10-09T09:05:50.972Z,99517.06
2023-10-09T09:08:26.439Z,99509.97
2023-10-09T09:11:13.431Z,99516.00
2023-10-09T09:13:50.304Z,99527.28
2023-10-09T09:16:22.750Z,99522.53
2023-10-09T09:19:11.933Z,99515.16
2023-10-09T09:21:50.038Z,99524.00
2023-10-09T09:24:28.183Z,99525.00
2023-10-09T09:27:00.348Z,99534.63
2023-10-09T09:29:37.737Z,99534.91
2023-10-09T09:32:21.868Z,99533.06
2023-10-09T09:34:55.869Z,99530.44
2023-10-09T09:37:31.026Z,99511.81
2023-10-09T09:40:12.119Z,99504.72
2023-10-09T09:42:42.241Z,99507.53
2023-10-09T09:45:12.387Z,99515.13
2023-10-09T09:47:39.179Z,99513.00
2023-10-09T09:50:23.625Z,99519.00
2023-10-09T09:52:54.959Z,99524.84
2023-10-09T09:55:32.091Z,99525.13
2023-10-09T09:57:59.709Z,99519.38
2023-10-09T10:00:42.482Z,99521.16
2023-10-09T10:03:13.856Z,99518.72
2023-10-09T10:05:43.601Z,99511.44
2023-10-09T10:08:14.889Z,99518.81
2023-10-09T10:10:53.874Z,99514.91
2023-10-09T10:13:43.214Z,99514.13
2023-10-09T10:16:20.339Z,99518.88
2023-10-09T10:19:27.017Z,99519.19
2023-10-09T10:21:54.062Z,99523.34
2023-10-09T10:24:29.750Z,99525.19
2023-10-09T10:27:32.820Z,99537.81
2023-10-09T10:30:12.196Z,99532.09
2023-10-09T10:32:59.002Z,99526.25
2023-10-09T10:35:40.873Z,99536.47
2023-10-09T10:38:37.641Z,99513.94
2023-10-09T10:41:18.112Z,99510.72
2023-10-09T10:43:49.234Z,99509.97
2023-10-09T10:46:25.615Z,99517.03
2023-10-09T10:49:00.632Z,99512.56
2023-10-09T10:51:38.877Z,99507.81
2023-10-09T10:54:26.110Z,99492.09
2023-10-09T10:56:53.195Z,99501.44
2023-10-09T10:59:30.357Z,99483.59
2023-10-09T11:02:00.988Z,99493.50
2023-10-09T11:04:35.136Z,99495.34
2023-10-09T11:07:22.507Z,99492.72
2023-10-09T11:10:06.997Z,99484.91
2023-10-09T11:12:54.450Z,99478.84
2023-10-09T11:15:45.503Z,99478.53
2023-10-09T11:18:21.279Z,99495.34
2023-10-09T11:21:05.111Z,99490.69
2023-10-09T11:23:35.734Z,99481.22
2023-10-09T11:26:26.882Z,99465.72
2023-10-09T11:29:32.384Z,99472.81
2023-10-09T11:32:19.222Z,99469.41
2023-10-09T11:34:53.594Z,99474.06
2023-10-09T11:37:31.052Z,99479.22
2023-10-09T11:40:01.484Z,99492.06
2023-10-09T11:43:01.734Z,99493.34
2023-10-09T11:45:38.838Z,99494.03
2023-10-09T11:48:25.823Z,99483.16
2023-10-09T11:50:54.198Z,99479.47
2023-10-09T11:53:41.365Z,99477.13
2023-10-09T11:56:13.401Z,99478.47
2023-10-09T11:58:41.857Z,99461.97
2023-10-09T12:01:23.878Z,99452.44
2023-10-09T12:03:52.298Z,99461.38
2023-10-09T12:06:23.601Z,99463.41
2023-10-09T12:08:50.831Z,99474.41
2023-10-09T12:11:25.025Z,99464.69
2023-10-09T12:13:57.536Z,99463.81
2023-10-09T12:16:29.600Z,99457.69
2023-10-09T12:18:56.927Z,99464.41
2023-10-09T12:21:24.680Z,99459.94
2023-10-09T12:23:51.691Z,99467.22
2023-10-09T12:26:18.432Z,99465.97
2023-10-09T12:28:47.159Z,99464.41
2023-10-09T12:31:21.233Z,99470.13
2023-10-09T12:33:48.804Z,99464.88
2023-10-09T12:36:21.850Z,99470.91
2023-10-09T12:38:54.395Z,99466.44
2023-10-09T12:41:27.767Z,99464.13
2023-10-09T12:43:55.940Z,99463.91
2023-10-09T12:46:26.861Z,99460.59
2023-10-09T12:48:55.652Z,99463.53
2023-10-09T12:51:30.938Z,99466.81
2023-10-09T12:53:58.431Z,99463.63
2023-10-09T12:56:44.238Z,99463.53
2023-10-09T12:59:16.388Z,99458.28
2023-10-09T13:01:46.245Z,99462.94
2023-10-09T13:04:17.243Z,99462.94
2023-10-09T13:06:45.472Z,99463.22
2023-10-09T13:09:16.664Z,99462.94
2023-10-09T13:11:44.648Z,99457.88
2023-10-09T13:14:24.042Z,99454.47
2023-10-09T13:16:54.335Z,99450.78
2023-10-09T13:19:25.391Z,99452.06
2023-10-09T13:21:52.399Z,99455.16
2023-10-09T13:24:21.593Z,99450.41
2023-10-09T13:26:52.514Z,99445.44
2023-10-09T13:29:25.768Z,99450.50
2023-10-09T13:31:59.036Z,99455.34
2023-10-09T13:34:29.447Z,99448.44
2023-10-09T13:36:59.711Z,99442.72
2023-10-09T13:39:27.532Z,99441.44
2023-10-09T13:41:59.382Z,99446.69
2023-10-09T13:44:31.139Z,99451.19
2023-10-09T13:46:59.768Z,99454.78
2023-10-09T13:49:32.961Z,99456.34
2023-10-09T13:52:02.834Z,99448.44
2023-10-09T13:54:33.989Z,99456.34
2023-10-09T13:57:07.246Z,99451.09
2023-10-09T13:59:36.563Z,99454.28
2023-10-09T14:02:10.374Z,99451.19
2023-10-09T14:04:37.875Z,99457.78
2023-10-09T14:07:06.924Z,99455.16
2023-10-09T14:09:40.009Z,99456.53
2023-10-09T14:12:08.192Z,99455.75
2023-10-09T14:14:41.782Z,99453.59
2023-10-09T14:17:14.720Z,99453.31
2023-10-09T14:19:52.126Z,99453.03
2023-10-09T14:22:27.704Z,99450.09
2023-10-09T14:24:59.633Z,99446.41
2023-10-09T14:27:30.813Z,99437.47
2023-10-09T14:30:00.880Z,99445.25
2023-10-09T14:32:35.934Z,99453.13
2023-10-09T14:35:03.165Z,99454.97
2023-10-09T14:37:30.209Z,99454.69
2023-10-09T14:39:59.689Z,99455.16
2023-10-09T14:42:28.875Z,99464.59
2023-10-09T14:44:56.978Z,99455.47
2023-10-09T14:47:24.129Z,99463.63
2023-10-09T14:49:51.327Z,99459.34
2023-10-09T14:52:18.379Z,99452.06
2023-10-09T14:54:48.458Z,99450.50
2023-10-09T14:57:16.295Z,99453.91
2023-10-09T14:59:47.333Z,99458.09
2023-10-09T15:02:14.452Z,99462.84
2023-10-09T15:04:41.454Z,99461.00
2023-10-09T15:07:08.662Z,99461.59
2023-10-09T15:09:37.730Z,99460.03
2023-10-09T15:12:08.379Z,99468.41
2023-10-09T15:14:35.485Z,99467.03
2023-10-09T15:17:03.485Z,99471.50
2023-10-09T15:19:33.347Z,99462.25
2023-10-09T15:22:00.686Z,99467.03
2023-10-09T15:24:31.452Z,99465.97
2023-10-09T15:26:58.652Z,99464.13
2023-10-09T15:29:31.668Z,99468.28
2023-10-09T15:32:15.813Z,99472.19
2023-10-09T15:34:42.626Z,99472.47
2023-10-09T15:37:09.280Z,99472.00
2023-10-09T15:39:38.760Z,99473.06
2023-10-09T15:42:07.483Z,99473.84
2023-10-09T15:44:37.763Z,99478.31
2023-10-09T15:47:09.656Z,99485.91
2023-10-09T15:49:42.500Z,99486.69
2023-10-09T15:52:10.208Z,99484.84
2023-10-09T15:54:37.985Z,99494.84
2023-10-09T15:57:13.070Z,99496.41
2023-10-09T15:59:40.620Z,99500.88
2023-10-09T16:02:07.378Z,99501.94
2023-10-09T16:04:35.145Z,99495.72
2023-10-09T16:07:02.587Z,99495.72
2023-10-09T16:09:30.751Z,99491.72
2023-10-09T16:11:57.468Z,99496.22
2023-10-09T16:14:24.620Z,99495.22
2023-10-09T16:16:51.606Z,99504.66
2023-10-09T16:19:18.766Z,99501.25
2023-10-09T16:21:45.682Z,99501.84
2023-10-09T16:24:13.467Z,99508.16
2023-10-09T16:26:46.506Z,99499.03
2023-10-09T16:29:13.654Z,99493.78
2023-10-09T16:31:41.936Z,99502.44
2023-10-09T16:34:09.699Z,99487.75
2023-10-09T16:36:37.785Z,99496.41
2023-10-09T16:39:04.948Z,99501.16
2023-10-09T16:41:36.039Z,99498.53
2023-10-09T16:44:06.231Z,99485.41
2023-10-09T16:46:33.011Z,99499.31
2023-10-09T16:49:05.407Z,99502.22
2023-10-09T16:51:32.180Z,99513.50
2023-10-09T16:53:59.982Z,99521.09
2023-10-09T16:56:32.648Z,99516.34
2023-10-09T16:59:01.515Z,99524.13
2023-10-09T17:01:28.964Z,99524.13
2023-10-09T17:03:58.940Z,99521.19
2023-10-09T17:06:30.328Z,99531.72
2023-10-09T17:08:58.157Z,99527.22
2023-10-09T17:11:25.827Z,99535.13
2023-10-09T17:13:55.768Z,99532.47
2023-10-09T17:16:25.223Z,99527.53
2023-10-09T17:18:57.219Z,99529.84
2023-10-09T17:21:24.824Z,99531.72
2023-10-09T17:23:54.843Z,99525.69
2023-10-09T17:26:24.684Z,99522.47
2023-10-09T17:28:55.325Z,99524.03
2023-10-09T17:31:27.669Z,99521.09
2023-10-09T17:33:58.369Z,99518.78
2023-10-09T17:36:27.358Z,99525.09
2023-10-09T17:38:55.012Z,99531.72
2023-10-09T17:41:25.145Z,99537.75
2023-10-09T17:43:52.094Z,99537.16
2023-10-09T17:46:19.276Z,99525.59
2023-10-09T17:48:46.494Z,99526.56
2023-10-09T17:51:13.276Z,99522.38
2023-10-09T17:53:41.047Z,99528.69
2023-10-09T17:56:09.749Z,99525.50
2023-10-09T17:58:36.713Z,99530.75
2023-10-09T18:01:07.519Z,99527.03
2023-10-09T18:03:35.007Z,99523.88
2023-10-09T18:06:01.674Z,99526.50
2023-10-09T18:08:28.456Z,99536.41
2023-10-09T18:11:00.767Z,99530.09
2023-10-09T18:13:27.872Z,99524.56
2023-10-09T18:16:09.009Z,99536.63
2023-10-09T18:18:37.601Z,99534.47
2023-10-09T18:21:06.989Z,99538.84
2023-10-09T18:23:34.401Z,99530.69
2023-10-09T18:26:02.488Z,99532.53
2023-10-09T18:28:29.826Z,99537.50
2023-10-09T18:30:56.630Z,99530.09
2023-10-09T18:33:24.295Z,99526.69
2023-10-09T18:35:51.222Z,99534.28
2023-10-09T18:38:17.922Z,99543.53
2023-10-09T18:40:53.396Z,99535.25
2023-10-09T18:43:20.792Z,99536.31
2023-10-09T18:45:47.560Z,99541.28
2023-10-09T18:48:19.257Z,99540.50
2023-10-09T18:50:46.198Z,99542.34
2023-10-09T18:53:14.217Z,99538.84
2023-10-09T18:55:41.577Z,99532.81
2023-10-09T18:58:10.994Z,99533.88
2023-10-09T19:00:42.199Z,99536.22
2023-10-09T19:03:11.791Z,99532.81
2023-10-09T19:05:43.417Z,99534.38
2023-10-09T19:08:10.177Z,99538.25
2023-10-09T19:10:38.361Z,99532.41
2023-10-09T19:13:11.207Z,99540.31
2023-10-09T19:15:38.600Z,99537.41
2023-10-09T19:18:06.169Z,99538.97
2023-10-09T19:20:33.533Z,99541.59
2023-10-09T19:23:05.036Z,99540.22
2023-10-09T19:25:34.001Z,99540.53
2023-10-09T19:28:00.726Z,99539.44
2023-10-09T19:30:29.942Z,99540.72
2023-10-09T19:32:57.183Z,99535.94
2023-10-09T19:35:24.253Z,99541.69
2023-10-09T19:37:51.660Z,99546.47
2023-10-09T19:40:18.918Z,99542.47
2023-10-09T19:42:45.600Z,99543.72
2023-10-09T19:45:14.572Z,99533.22
2023-10-09T19:47:41.574Z,99540.81
2023-10-09T19:50:09.439Z,99544.22
2023-10-09T19:52:36.106Z,99547.31
2023-10-09T19:55:02.783Z,99549.66
2023-10-09T19:57:32.282Z,99550.91
2023-10-09T19:59:58.937Z,99555.59
2023-10-09T20:02:26.046Z,99552.66
2023-10-09T20:04:52.845Z,99551.88
2023-10-09T20:07:19.549Z,99557.91
2023-10-09T20:09:46.809Z,99556.38
2023-10-09T20:12:16.863Z,99563.47
2023-10-09T20:14:43.970Z,99559.47
2023-10-09T20:17:12.462Z,99562.41
2023-10-09T20:19:43.769Z,99567.97
2023-10-09T20:22:12.578Z,99566.28
2023-10-09T20:24:39.628Z,99569.22
2023-10-09T20:27:06.528Z,99571.06
2023-10-09T20:29:36.397Z,99573.69
2023-10-09T20:32:06.864Z,99570.00
2023-10-09T20:34:33.647Z,99572.03
2023-10-09T20:37:04.012Z,99572.03
2023-10-09T20:39:30.875Z,99577.00
2023-10-09T20:41:57.539Z,99577.28
2023-10-09T20:44:25.060Z,99576.22
2023-10-09T20:46:54.986Z,99587.81
2023-10-09T20:49:21.816Z,99589.66
2023-10-09T20:51:57.147Z,99589.66
2023-10-09T20:54:26.389Z,99596.47
2023-10-09T20:56:53.099Z,99596.47
2023-10-09T20:59:19.947Z,99601.44
2023-10-09T21:01:46.815Z,99602.50
2023-10-09T21:04:13.611Z,99605.16
2023-10-09T21:06:41.230Z,99607.47
2023-10-09T21:09:08.575Z,99602.50
2023-10-09T21:11:35.247Z,99610.59
2023-10-09T21:14:01.924Z,99606.13
2023-10-09T21:16:28.712Z,99612.94
2023-10-09T21:18:56.937Z,99612.34
2023-10-09T21:21:24.816Z,99621.50
2023-10-09T21:23:51.638Z,99616.53
2023-10-09T21:26:23.476Z,99625.97
2023-10-09T21:28:52.715Z,99620.22
2023-10-09T21:31:21.761Z,99618.88
2023-10-09T21:33:51.929Z,99624.13
2023-10-09T21:36:19.155Z,99622.75
2023-10-09T21:38:45.879Z,99625.19
2023-10-09T21:41:14.151Z,99629.19
2023-10-09T21:43:41.824Z,99629.19
2023-10-09T21:46:10.746Z,99638.16
2023-10-09T21:48:43.858Z,99639.72
2023-10-09T21:51:12.322Z,99636.31
2023-10-09T21:53:40.757Z,99639.72
2023-10-09T21:56:09.248Z,99638.16
2023-10-09T21:58:36.103Z,99633.97
2023-10-09T22:01:04.353Z,99641.06
2023-10-09T22:03:31.738Z,99642.94
2023-10-09T22:05:59.663Z,99636.31
2023-10-09T22:08:26.890Z,99633.19
2023-10-09T22:10:54.512Z,99633.97
2023-10-09T22:13:22.257Z,99637.38
2023-10-09T22:15:49.550Z,99633.19
2023-10-09T22:18:22.427Z,99632.91
2023-10-09T22:20:50.705Z,99635.81
2023-10-09T22:23:20.850Z,99637.19
2023-10-09T22:26:01.447Z,99635.03
2023-10-09T22:28:29.318Z,99639.53
2023-10-09T22:31:02.377Z,99644.00
2023-10-09T22:33:46.252Z,99645.06
2023-10-09T22:36:15.346Z,99645.84
2023-10-09T22:38:45.335Z,99641.38
2023-10-09T22:41:12.051Z,99638.16
2023-10-09T22:43:40.709Z,99643.72
2023-10-09T22:46:08.964Z,99639.53
2023-10-09T22:48:42.675Z,99647.13
2023-10-09T22:51:12.520Z,99648.38
2023-10-09T22:53:40.600Z,99644.00
2023-10-09T22:56:14.210Z,99647.41
2023-10-09T22:58:52.007Z,99642.72
2023-10-09T23:01:24.709Z,99637.28
2023-10-09T23:04:10.713Z,99648.38
2023-10-09T23:06:41.923Z,99643.22
2023-10-09T23:09:16.795Z,99650.03
2023-10-09T23:11:54.951Z,99649.56
2023-10-09T23:14:28.552Z,99648.00
2023-10-09T23:17:02.946Z,99659.59
2023-10-09T23:19:41.933Z,99668.25
2023-10-09T23:22:20.977Z,99669.31
2023-10-09T23:24:52.599Z,99666.97
2023-10-09T23:27:44.558Z,99675.16
2023-10-09T23:30:13.395Z,99672.03
2023-10-09T23:32:48.445Z,99675.75
2023-10-09T23:35:23.011Z,99679.16
2023-10-09T23:38:10.136Z,99679.44
2023-10-09T23:40:45.069Z,99674.47
2023-10-09T23:43:14.683Z,99676.81
2023-10-09T23:45:42.345Z,99676.31
2023-10-09T23:48:16.469Z,99681.09
2023-10-09T23:50:49.294Z,99684.19
2023-10-09T23:53:16.213Z,99676.81
2023-10-09T23:55:44.428Z,99682.34
2023-10-09T23:58:19.825Z,99684.50
